Time;durP1;ratioP1;P1;durP2;ratioP2;P2;SDS_P1;SDS_P2;PMS_P1;PMS_P2;Temp;Humidity;BMP_temperature;BMP_pressure;BME280_temperature;BME280_humidity;BME280_pressure;Samples;Min_cycle;Max_cycle;Signal;HPM_P1;HPM_P2
2022/03/24 00:01:52;;;;;;;0.10;0.10;;;;;;;;;;5036128;28;20653;-68
2022/03/24 00:04:21;;;;;;;0.10;0.10;;;;;;;;;;5037874;28;20652;-68
2022/03/24 00:06:48;;;;;;;0.10;0.10;;;;;;;;;;5041008;28;20624;-69
2022/03/24 00:09:15;;;;;;;0.10;0.10;;;;;;;;;;5038271;28;20656;-68
2022/03/24 00:11:43;;;;;;;0.13;0.13;;;;;;;;;;5043407;28;20645;-68
2022/03/24 00:14:10;;;;;;;0.20;0.20;;;;;;;;;;5041668;28;20626;-71
2022/03/24 00:16:37;;;;;;;0.10;0.10;;;;;;;;;;5040204;28;20637;-68
2022/03/24 00:19:04;;;;;;;0.10;0.10;;;;;;;;;;5040538;28;20704;-72
2022/03/24 00:21:33;;;;;;;0.10;0.10;;;;;;;;;;5040102;28;20710;-69
2022/03/24 00:24:00;;;;;;;0.10;0.10;;;;;;;;;;5043729;28;21301;-71
2022/03/24 00:26:27;;;;;;;0.10;0.10;;;;;;;;;;5038425;28;20626;-70
2022/03/24 00:28:54;;;;;;;0.10;0.10;;;;;;;;;;5035080;28;20615;-69
2022/03/24 00:31:22;;;;;;;0.20;0.20;;;;;;;;;;5038582;28;20649;-70
2022/03/24 00:33:50;;;;;;;0.10;0.10;;;;;;;;;;5043777;28;20633;-70
2022/03/24 00:36:17;;;;;;;0.20;0.20;;;;;;;;;;5035214;28;20695;-69
2022/03/24 00:38:46;;;;;;;0.10;0.10;;;;;;;;;;5040898;28;20633;-70
2022/03/24 00:41:15;;;;;;;0.20;0.20;;;;;;;;;;5035885;28;20649;-68
2022/03/24 00:43:43;;;;;;;0.10;0.10;;;;;;;;;;5044457;28;20628;-68
2022/03/24 00:46:13;;;;;;;0.20;0.20;;;;;;;;;;5040628;28;20614;-68
2022/03/24 00:48:41;;;;;;;0.17;0.17;;;;;;;;;;5031947;28;20720;-68
2022/03/24 00:51:08;;;;;;;0.17;0.17;;;;;;;;;;5037482;28;20747;-68
2022/03/24 00:53:37;;;;;;;0.20;0.20;;;;;;;;;;5049150;28;20673;-70
2022/03/24 00:56:05;;;;;;;0.20;0.20;;;;;;;;;;5045819;28;20640;-68
2022/03/24 00:58:33;;;;;;;0.10;0.10;;;;;;;;;;5037235;28;20627;-69
2022/03/24 01:01:02;;;;;;;0.10;0.10;;;;;;;;;;5042986;28;20657;-68
2022/03/24 01:03:29;;;;;;;0.10;0.10;;;;;;;;;;5035987;28;20699;-71
2022/03/24 01:05:57;;;;;;;0.20;0.20;;;;;;;;;;5048931;28;20660;-69
2022/03/24 01:08:24;;;;;;;0.20;0.20;;;;;;;;;;5038369;28;21381;-68
2022/03/24 01:10:55;;;;;;;0.20;0.20;;;;;;;;;;5043796;28;20661;-68
2022/03/24 01:13:24;;;;;;;0.10;0.10;;;;;;;;;;5043285;28;20641;-69
2022/03/24 01:15:52;;;;;;;0.20;0.20;;;;;;;;;;5041729;28;20626;-67
2022/03/24 01:18:20;;;;;;;0.20;0.20;;;;;;;;;;5048512;28;20663;-67
2022/03/24 01:20:48;;;;;;;0.20;0.20;;;;;;;;;;5041605;28;20749;-69
2022/03/24 01:23:15;;;;;;;0.20;0.20;;;;;;;;;;5043735;28;20626;-68
2022/03/24 01:25:44;;;;;;;0.20;0.20;;;;;;;;;;5050962;28;20768;-69
2022/03/24 01:28:14;;;;;;;0.20;0.20;;;;;;;;;;5043519;28;20642;-67
2022/03/24 01:30:43;;;;;;;0.10;0.10;;;;;;;;;;5038356;28;20613;-69
2022/03/24 01:33:10;;;;;;;0.20;0.20;;;;;;;;;;5041829;28;20633;-68
2022/03/24 01:35:37;;;;;;;0.20;0.20;;;;;;;;;;5041960;28;20622;-68
2022/03/24 01:38:05;;;;;;;0.20;0.20;;;;;;;;;;5045021;28;20618;-68
2022/03/24 01:40:32;;;;;;;0.20;0.20;;;;;;;;;;5045005;28;20609;-70
2022/03/24 01:43:00;;;;;;;0.13;0.13;;;;;;;;;;5049562;28;20717;-67
2022/03/24 01:45:28;;;;;;;0.10;0.10;;;;;;;;;;5036620;28;20658;-67
2022/03/24 01:47:57;;;;;;;0.10;0.10;;;;;;;;;;5037308;28;20605;-68
2022/03/24 01:50:24;;;;;;;0.10;0.10;;;;;;;;;;5039691;28;20622;-68
2022/03/24 01:52:53;;;;;;;0.10;0.10;;;;;;;;;;5043462;28;20679;-69
2022/03/24 01:55:20;;;;;;;0.10;0.10;;;;;;;;;;5037727;28;20659;-68
2022/03/24 01:57:49;;;;;;;0.20;0.20;;;;;;;;;;5039610;28;20649;-67
2022/03/24 02:00:17;;;;;;;0.20;0.20;;;;;;;;;;5038093;28;20645;-66
2022/03/24 02:02:45;;;;;;;0.20;0.20;;;;;;;;;;5042880;28;20689;-68
2022/03/24 02:05:14;;;;;;;0.20;0.20;;;;;;;;;;5037334;28;20656;-68
2022/03/24 02:07:43;;;;;;;0.10;0.10;;;;;;;;;;5049962;28;20716;-68
2022/03/24 02:10:12;;;;;;;0.20;0.20;;;;;;;;;;5041735;28;20684;-70
2022/03/24 02:12:41;;;;;;;0.20;0.20;;;;;;;;;;5032881;28;20657;-70
2022/03/24 02:15:11;;;;;;;0.10;0.10;;;;;;;;;;5035117;28;20614;-68
2022/03/24 02:17:39;;;;;;;0.20;0.20;;;;;;;;;;5046087;28;20625;-67
2022/03/24 02:20:09;;;;;;;0.20;0.20;;;;;;;;;;5043593;28;20653;-69
2022/03/24 02:22:38;;;;;;;0.10;0.10;;;;;;;;;;5042857;28;20653;-70
2022/03/24 02:25:07;;;;;;;0.20;0.20;;;;;;;;;;5042346;28;20668;-67
2022/03/24 02:27:34;;;;;;;0.17;0.17;;;;;;;;;;5035633;28;20624;-68
2022/03/24 02:30:03;;;;;;;0.10;0.10;;;;;;;;;;5046724;28;20679;-68
2022/03/24 02:32:31;;;;;;;0.10;0.10;;;;;;;;;;5045261;28;20749;-67
2022/03/24 02:34:59;;;;;;;0.20;0.20;;;;;;;;;;5040759;28;20619;-68
2022/03/24 02:37:28;;;;;;;0.20;0.20;;;;;;;;;;5063200;28;20627;-67
2022/03/24 02:39:58;;;;;;;0.20;0.20;;;;;;;;;;5034344;28;20654;-66
2022/03/24 02:42:26;;;;;;;0.20;0.20;;;;;;;;;;5037264;28;20731;-67
2022/03/24 02:44:54;;;;;;;0.10;0.10;;;;;;;;;;5039274;28;20650;-67
2022/03/24 02:47:22;;;;;;;0.10;0.10;;;;;;;;;;5034503;28;20638;-67
2022/03/24 02:49:51;;;;;;;0.10;0.10;;;;;;;;;;5038621;28;20613;-68
2022/03/24 02:52:18;;;;;;;0.13;0.13;;;;;;;;;;5042017;28;20768;-69
2022/03/24 02:54:46;;;;;;;0.10;0.10;;;;;;;;;;5039793;28;20613;-68
2022/03/24 02:57:14;;;;;;;0.20;0.20;;;;;;;;;;5052294;28;20652;-67
2022/03/24 02:59:42;;;;;;;0.20;0.20;;;;;;;;;;5041889;28;20649;-69
2022/03/24 03:02:11;;;;;;;0.10;0.10;;;;;;;;;;5043641;28;20653;-70
2022/03/24 03:04:38;;;;;;;0.20;0.20;;;;;;;;;;5032863;28;21236;-68
2022/03/24 03:07:06;;;;;;;0.20;0.20;;;;;;;;;;5041886;28;20622;-70
2022/03/24 03:09:34;;;;;;;0.10;0.10;;;;;;;;;;5047614;28;20686;-68
2022/03/24 03:12:01;;;;;;;0.10;0.10;;;;;;;;;;5035618;28;20656;-67
2022/03/24 03:14:30;;;;;;;0.20;0.20;;;;;;;;;;5042615;28;20724;-70
2022/03/24 03:16:58;;;;;;;0.20;0.20;;;;;;;;;;5041386;28;20622;-67
2022/03/24 03:19:26;;;;;;;0.10;0.10;;;;;;;;;;5056583;28;20623;-68
2022/03/24 03:21:54;;;;;;;0.17;0.17;;;;;;;;;;5040959;28;20661;-68
2022/03/24 03:24:22;;;;;;;0.10;0.10;;;;;;;;;;5041141;28;20651;-70
2022/03/24 03:26:50;;;;;;;0.20;0.20;;;;;;;;;;5041734;28;20625;-67
2022/03/24 03:29:18;;;;;;;0.20;0.20;;;;;;;;;;5035821;28;20721;-72
2022/03/24 03:31:46;;;;;;;0.10;0.10;;;;;;;;;;5055233;28;20711;-70
2022/03/24 03:34:14;;;;;;;0.10;0.10;;;;;;;;;;5040775;28;20625;-71
2022/03/24 03:36:44;;;;;;;0.10;0.10;;;;;;;;;;5040044;28;21129;-69
2022/03/24 03:39:11;;;;;;;0.10;0.10;;;;;;;;;;5031327;28;20627;-68
2022/03/24 03:41:39;;;;;;;0.20;0.20;;;;;;;;;;5041234;28;20688;-67
2022/03/24 03:44:07;;;;;;;0.20;0.20;;;;;;;;;;5044887;28;20736;-68
2022/03/24 03:46:35;;;;;;;0.20;0.20;;;;;;;;;;5034479;28;20654;-69
2022/03/24 03:49:03;;;;;;;0.10;0.10;;;;;;;;;;5036803;28;20627;-70
2022/03/24 03:51:31;;;;;;;0.20;0.20;;;;;;;;;;5039311;28;20654;-68
2022/03/24 03:53:59;;;;;;;0.20;0.20;;;;;;;;;;5044245;28;20679;-69
2022/03/24 03:56:26;;;;;;;0.20;0.20;;;;;;;;;;5040635;28;20673;-68
2022/03/24 03:58:53;;;;;;;0.20;0.20;;;;;;;;;;5040050;28;20723;-68
2022/03/24 04:01:21;;;;;;;0.10;0.10;;;;;;;;;;5040680;28;20765;-70
2022/03/24 04:03:48;;;;;;;0.20;0.20;;;;;;;;;;5045691;28;20622;-68
2022/03/24 04:06:17;;;;;;;0.20;0.20;;;;;;;;;;5040848;28;20664;-70
2022/03/24 04:08:45;;;;;;;0.10;0.10;;;;;;;;;;5042822;28;20630;-68
2022/03/24 04:11:13;;;;;;;0.10;0.10;;;;;;;;;;5038026;28;20903;-68
2022/03/24 04:13:42;;;;;;;0.20;0.20;;;;;;;;;;5039388;28;21064;-68
2022/03/24 04:16:12;;;;;;;0.10;0.10;;;;;;;;;;5036674;28;20618;-70
2022/03/24 04:18:39;;;;;;;0.10;0.10;;;;;;;;;;5039786;28;20618;-69
2022/03/24 04:21:07;;;;;;;0.20;0.20;;;;;;;;;;5034617;28;20642;-70
2022/03/24 04:23:37;;;;;;;0.10;0.10;;;;;;;;;;5039910;28;20713;-67
2022/03/24 04:26:04;;;;;;;0.20;0.20;;;;;;;;;;5039092;28;20720;-68
2022/03/24 04:28:31;;;;;;;0.17;0.17;;;;;;;;;;5032607;28;20625;-69
2022/03/24 04:30:59;;;;;;;0.20;0.20;;;;;;;;;;5041810;28;20692;-67
2022/03/24 04:33:26;;;;;;;0.20;0.20;;;;;;;;;;5044229;28;20725;-68
2022/03/24 04:35:54;;;;;;;0.10;0.10;;;;;;;;;;5038341;28;21048;-68
2022/03/24 04:38:21;;;;;;;0.20;0.20;;;;;;;;;;5040518;28;20958;-67
2022/03/24 04:40:50;;;;;;;0.10;0.10;;;;;;;;;;5042456;28;20650;-69
2022/03/24 04:43:17;;;;;;;0.20;0.20;;;;;;;;;;5046711;28;21204;-68
2022/03/24 04:45:45;;;;;;;0.20;0.20;;;;;;;;;;5048319;28;20671;-69
2022/03/24 04:48:12;;;;;;;0.20;0.20;;;;;;;;;;5043288;28;20642;-67
2022/03/24 04:50:39;;;;;;;0.20;0.20;;;;;;;;;;5041221;28;20601;-67
2022/03/24 04:53:06;;;;;;;0.20;0.20;;;;;;;;;;5046575;28;21263;-67
2022/03/24 04:55:34;;;;;;;0.20;0.20;;;;;;;;;;5044149;28;20705;-68
2022/03/24 04:58:03;;;;;;;0.20;0.20;;;;;;;;;;5050231;28;20637;-69
2022/03/24 05:00:30;;;;;;;0.20;0.20;;;;;;;;;;5040202;28;20633;-67
2022/03/24 05:02:57;;;;;;;0.10;0.10;;;;;;;;;;5040353;28;20637;-72
2022/03/24 05:05:24;;;;;;;0.20;0.20;;;;;;;;;;5043629;28;20669;-67
2022/03/24 05:07:51;;;;;;;0.20;0.20;;;;;;;;;;5045985;28;20609;-68
2022/03/24 05:10:19;;;;;;;0.20;0.20;;;;;;;;;;5043547;28;20659;-67
2022/03/24 05:12:47;;;;;;;0.20;0.20;;;;;;;;;;5043200;28;20646;-66
2022/03/24 05:15:16;;;;;;;0.20;0.20;;;;;;;;;;5036456;28;20647;-68
2022/03/24 05:17:43;;;;;;;0.10;0.10;;;;;;;;;;5054229;28;20624;-67
2022/03/24 05:20:10;;;;;;;0.20;0.20;;;;;;;;;;5046432;28;20650;-67
2022/03/24 05:22:38;;;;;;;0.20;0.20;;;;;;;;;;5049574;28;20713;-70
2022/03/24 05:25:07;;;;;;;0.20;0.20;;;;;;;;;;5044682;28;20625;-68
2022/03/24 05:27:35;;;;;;;0.10;0.10;;;;;;;;;;5037607;28;20612;-69
2022/03/24 05:30:03;;;;;;;0.20;0.20;;;;;;;;;;5043106;28;20668;-68
2022/03/24 05:32:31;;;;;;;0.20;0.20;;;;;;;;;;5042841;28;20642;-67
2022/03/24 05:35:00;;;;;;;0.20;0.20;;;;;;;;;;5043097;28;20614;-67
2022/03/24 05:37:28;;;;;;;0.20;0.20;;;;;;;;;;5041285;28;21194;-68
2022/03/24 05:39:55;;;;;;;0.20;0.20;;;;;;;;;;5044767;28;20668;-69
2022/03/24 05:42:22;;;;;;;0.20;0.20;;;;;;;;;;5042055;28;20757;-70
2022/03/24 05:44:49;;;;;;;0.20;0.20;;;;;;;;;;5042838;28;20617;-68
2022/03/24 05:47:17;;;;;;;0.20;0.20;;;;;;;;;;5036149;28;20711;-71
2022/03/24 05:49:45;;;;;;;0.10;0.10;;;;;;;;;;5038485;28;20622;-69
2022/03/24 05:52:28;;;;;;;0.10;0.10;;;;;;;;;;5035088;28;20652;-71
2022/03/24 05:54:56;;;;;;;0.20;0.20;;;;;;;;;;5040051;28;20621;-67
2022/03/24 05:57:24;;;;;;;0.20;0.20;;;;;;;;;;5030055;28;20622;-68
2022/03/24 05:59:51;;;;;;;0.20;0.20;;;;;;;;;;5040092;28;20624;-71
2022/03/24 06:02:20;;;;;;;0.10;0.10;;;;;;;;;;5044075;28;20653;-69
2022/03/24 06:04:49;;;;;;;0.20;0.20;;;;;;;;;;5038483;28;20638;-71
2022/03/24 06:07:17;;;;;;;0.17;0.17;;;;;;;;;;5040461;28;20729;-69
2022/03/24 06:09:45;;;;;;;0.20;0.20;;;;;;;;;;5049049;28;20689;-71
2022/03/24 06:12:13;;;;;;;0.20;0.20;;;;;;;;;;5040179;28;20662;-71
2022/03/24 06:14:41;;;;;;;0.20;0.20;;;;;;;;;;5040148;28;20641;-70
2022/03/24 06:17:09;;;;;;;0.10;0.10;;;;;;;;;;5038635;28;20645;-70
2022/03/24 06:19:37;;;;;;;0.20;0.20;;;;;;;;;;5041787;28;20614;-69
2022/03/24 06:22:06;;;;;;;0.13;0.13;;;;;;;;;;5047399;28;20714;-70
2022/03/24 06:24:34;;;;;;;0.20;0.20;;;;;;;;;;5058287;28;20625;-70
2022/03/24 06:27:02;;;;;;;0.20;0.20;;;;;;;;;;5043817;28;20711;-68
2022/03/24 06:29:29;;;;;;;0.20;0.20;;;;;;;;;;5041942;28;20660;-71
2022/03/24 06:31:56;;;;;;;0.17;0.17;;;;;;;;;;5039876;28;20696;-67
2022/03/24 06:34:24;;;;;;;0.20;0.20;;;;;;;;;;5048092;28;20671;-68
2022/03/24 06:36:51;;;;;;;0.20;0.20;;;;;;;;;;5039725;28;20633;-68
2022/03/24 06:39:20;;;;;;;0.17;0.17;;;;;;;;;;5037433;28;20641;-67
2022/03/24 06:41:48;;;;;;;0.10;0.10;;;;;;;;;;5049666;28;20724;-67
2022/03/24 06:44:15;;;;;;;0.17;0.17;;;;;;;;;;5036142;28;20643;-67
2022/03/24 06:46:44;;;;;;;0.20;0.20;;;;;;;;;;5031045;28;20654;-68
2022/03/24 06:49:12;;;;;;;0.10;0.10;;;;;;;;;;5053041;28;20634;-67
2022/03/24 06:51:39;;;;;;;0.20;0.20;;;;;;;;;;5043375;28;20652;-68
2022/03/24 06:54:07;;;;;;;0.20;0.20;;;;;;;;;;5041202;28;20640;-68
2022/03/24 06:56:37;;;;;;;0.20;0.20;;;;;;;;;;5034297;28;20618;-67
2022/03/24 06:59:05;;;;;;;0.20;0.20;;;;;;;;;;5047021;28;20625;-67
2022/03/24 07:01:32;;;;;;;0.20;0.20;;;;;;;;;;5040050;28;21187;-69
2022/03/24 07:03:59;;;;;;;0.10;0.10;;;;;;;;;;5036299;28;20637;-69
2022/03/24 07:06:26;;;;;;;0.10;0.10;;;;;;;;;;5037006;28;20764;-68
2022/03/24 07:08:54;;;;;;;0.10;0.10;;;;;;;;;;5044377;28;20655;-69
2022/03/24 07:11:21;;;;;;;0.10;0.10;;;;;;;;;;5043690;28;20665;-69
2022/03/24 07:13:49;;;;;;;0.20;0.20;;;;;;;;;;5040271;28;20666;-69
2022/03/24 07:16:17;;;;;;;0.20;0.20;;;;;;;;;;5033530;28;20617;-69
2022/03/24 07:18:44;;;;;;;0.20;0.20;;;;;;;;;;5034145;28;20618;-68
2022/03/24 07:21:11;;;;;;;0.20;0.20;;;;;;;;;;5038499;28;20680;-68
2022/03/24 07:23:39;;;;;;;0.10;0.10;;;;;;;;;;5044712;28;20626;-71
2022/03/24 07:26:07;;;;;;;0.13;0.13;;;;;;;;;;5041137;28;20742;-68
2022/03/24 07:28:34;;;;;;;0.10;0.10;;;;;;;;;;5040258;28;20629;-68
2022/03/24 07:31:10;;;;;;;0.20;0.20;;;;;;;;;;5040652;28;21057;-68
2022/03/24 07:33:38;;;;;;;0.20;0.20;;;;;;;;;;5037891;28;20667;-69
2022/03/24 07:36:06;;;;;;;0.20;0.20;;;;;;;;;;5042819;28;20630;-69
2022/03/24 07:38:33;;;;;;;0.10;0.10;;;;;;;;;;5041599;28;20707;-69
2022/03/24 07:41:01;;;;;;;0.20;0.20;;;;;;;;;;5045200;28;20668;-68
2022/03/24 07:43:28;;;;;;;0.20;0.20;;;;;;;;;;5041969;28;20617;-69
2022/03/24 07:45:56;;;;;;;0.10;0.10;;;;;;;;;;5041004;28;20733;-68
2022/03/24 07:48:26;;;;;;;0.10;0.10;;;;;;;;;;5038692;28;20622;-69
2022/03/24 07:50:54;;;;;;;0.10;0.10;;;;;;;;;;5035883;28;20650;-68
2022/03/24 07:53:25;;;;;;;0.20;0.20;;;;;;;;;;5030497;28;20625;-67
2022/03/24 07:55:58;;;;;;;0.10;0.10;;;;;;;;;;5038899;28;20681;-68
2022/03/24 07:58:25;;;;;;;0.10;0.10;;;;;;;;;;5034184;28;20626;-67
2022/03/24 08:00:53;;;;;;;0.10;0.10;;;;;;;;;;5038381;28;20654;-69
2022/03/24 08:03:21;;;;;;;0.13;0.13;;;;;;;;;;5039946;28;20705;-67
2022/03/24 08:05:50;;;;;;;0.10;0.10;;;;;;;;;;5034540;28;20633;-68
2022/03/24 08:08:17;;;;;;;0.20;0.20;;;;;;;;;;5033575;28;20657;-70
2022/03/24 08:10:47;;;;;;;0.10;0.10;;;;;;;;;;5039022;28;20660;-69
2022/03/24 08:13:15;;;;;;;0.13;0.13;;;;;;;;;;5045293;28;20625;-68
2022/03/24 08:15:42;;;;;;;0.10;0.10;;;;;;;;;;5039467;28;20634;-67
2022/03/24 08:18:10;;;;;;;0.10;0.10;;;;;;;;;;5046157;28;20601;-67
2022/03/24 08:20:38;;;;;;;0.10;0.10;;;;;;;;;;5039043;28;20660;-70
2022/03/24 08:23:09;;;;;;;0.10;0.10;;;;;;;;;;5032985;28;20231;-70
2022/03/24 08:25:37;;;;;;;0.10;0.10;;;;;;;;;;5036533;28;20637;-70
2022/03/24 08:28:04;;;;;;;0.10;0.10;;;11.10;99.90;;;;;;5042598;28;20223;-69
2022/03/24 08:30:31;;;;;;;0.10;0.10;;;;;;;;;;5037955;28;20200;-70
2022/03/24 08:32:58;;;;;;;0.10;0.10;;;;;;;;;;5039487;28;20282;-70
2022/03/24 08:35:26;;;;;;;0.10;0.10;;;;;;;;;;5057291;28;20297;-71
2022/03/24 08:37:54;;;;;;;0.10;0.10;;;;;;;;;;5036563;28;20196;-69
2022/03/24 08:40:23;;;;;;;0.10;0.10;;;;;;;;;;5033052;28;20252;-69
2022/03/24 08:42:50;;;;;;;0.10;0.10;;;;;;;;;;5035280;28;20357;-70
2022/03/24 08:45:18;;;;;;;0.10;0.10;;;;;;;;;;5042604;28;20233;-69
2022/03/24 08:47:45;;;;;;;0.13;0.13;;;;;;;;;;5044118;28;20223;-70
2022/03/24 08:50:13;;;;;;;0.10;0.10;;;;;;;;;;5040281;28;20268;-71
2022/03/24 08:52:44;;;;;;;0.10;0.10;;;;;;;;;;5041705;28;20223;-70
2022/03/24 08:55:13;;;;;;;0.10;0.10;;;;;;;;;;5037467;28;20207;-72
2022/03/24 08:57:43;;;;;;;0.10;0.10;;;;;;;;;;5046178;28;20196;-71
2022/03/24 09:00:13;;;;;;;0.10;0.10;;;;;;;;;;5044555;28;20206;-71
2022/03/24 09:02:41;;;;;;;0.10;0.10;;;;;;;;;;5039587;28;20290;-71
2022/03/24 09:05:09;;;;;;;0.20;0.20;;;;;;;;;;5036941;28;20250;-69
2022/03/24 09:07:37;;;;;;;0.10;0.10;;;;;;;;;;5036451;28;20230;-69
2022/03/24 09:10:06;;;;;;;0.10;0.10;;;11.10;99.90;;;;;;5028350;28;20292;-71
2022/03/24 09:12:35;;;;;;;0.10;0.10;;;13.20;99.90;;;;;;5040415;28;20307;-70
2022/03/24 09:15:05;;;;;;;0.10;0.10;;;;;;;;;;5042457;28;20314;-71
2022/03/24 09:17:33;;;;;;;0.10;0.10;;;;;;;;;;5048812;28;20207;-71
2022/03/24 09:20:00;;;;;;;0.10;0.10;;;;;;;;;;5042485;28;20191;-72
2022/03/24 09:22:28;;;;;;;0.10;0.10;;;;;;;;;;5043833;28;20215;-72
2022/03/24 09:24:55;;;;;;;0.10;0.10;;;;;;;;;;5035905;28;20236;-71
2022/03/24 09:27:22;;;;;;;0.10;0.10;;;;;;;;;;5043510;28;20234;-71
2022/03/24 09:29:50;;;;;;;0.10;0.10;;;;;;;;;;5044878;28;20203;-70
2022/03/24 09:32:19;;;;;;;0.10;0.10;;;;;;;;;;5034876;28;20322;-70
2022/03/24 09:34:46;;;;;;;0.10;0.10;;;13.50;99.90;;;;;;5038758;28;20199;-74
2022/03/24 09:37:17;;;;;;;0.00;0.00;;;13.60;99.90;;;;;;5044952;28;20210;-70
2022/03/24 09:39:45;;;;;;;0.10;0.10;;;13.70;99.90;;;;;;5037221;28;20257;-70
2022/03/24 09:42:12;;;;;;;0.10;0.10;;;13.80;99.90;;;;;;5038870;28;20225;-70
2022/03/24 09:44:42;;;;;;;0.03;0.03;;;13.80;99.90;;;;;;5041429;28;20199;-69
2022/03/24 09:47:11;;;;;;;0.10;0.10;;;;;;;;;;5046601;28;20322;-72
2022/03/24 09:49:40;;;;;;;0.10;0.10;;;;;;;;;;5033921;28;20200;-69
2022/03/24 09:52:08;;;;;;;0.00;0.00;;;13.90;99.90;;;;;;5053920;28;20223;-71
2022/03/24 09:54:35;;;;;;;0.10;0.10;;;14.20;99.90;;;;;;5041118;28;20616;-70
2022/03/24 09:57:06;;;;;;;0.10;0.10;;;14.20;99.90;;;;;;5029237;28;20204;-72
2022/03/24 09:59:34;;;;;;;0.10;0.10;;;14.20;99.90;;;;;;5042534;28;20211;-71
2022/03/24 10:02:03;;;;;;;0.10;0.10;;;;;;;;;;5040153;28;20219;-73
2022/03/24 10:04:44;;;;;;;0.10;0.10;;;;;;;;;;5043354;28;20264;-71
2022/03/24 10:07:13;;;;;;;0.10;0.10;;;;;;;;;;5037146;28;20289;-70
2022/03/24 10:09:44;;;;;;;0.10;0.10;;;;;;;;;;5037183;28;20199;-71
2022/03/24 10:12:18;;;;;;;0.10;0.10;;;;;;;;;;5060917;28;20223;-72
2022/03/24 10:14:45;;;;;;;0.00;0.00;;;;;;;;;;5036292;28;20221;-72
2022/03/24 10:17:13;;;;;;;0.00;0.00;;;14.30;99.90;;;;;;5042397;28;20191;-73
2022/03/24 10:19:55;;;;;;;0.10;0.10;;;14.90;99.90;;;;;;5039095;28;20207;-69
2022/03/24 10:22:23;;;;;;;0.00;0.00;;;15.10;99.90;;;;;;5035946;28;20330;-71
2022/03/24 10:24:50;;;;;;;0.00;0.00;;;15.10;99.90;;;;;;5034938;28;20203;-69
2022/03/24 10:27:21;;;;;;;0.00;0.00;;;;;;;;;;5049518;28;20207;-69
2022/03/24 10:29:48;;;;;;;0.10;0.10;;;;;;;;;;5029899;28;20211;-71
2022/03/24 10:32:16;;;;;;;0.10;0.10;;;15.20;99.90;;;;;;5047838;28;20223;-72
2022/03/24 10:34:46;;;;;;;0.10;0.10;;;15.80;99.90;;;;;;5038892;28;20211;-69
2022/03/24 10:37:17;;;;;;;0.00;0.00;;;15.90;99.90;;;;;;5038977;28;20372;-70
2022/03/24 10:39:58;;;;;;;0.00;0.00;;;15.90;99.90;;;;;;5036581;28;20207;-71
2022/03/24 10:42:28;;;;;;;0.00;0.00;;;15.70;99.90;;;;;;5044975;28;20225;-71
2022/03/24 10:45:13;;;;;;;0.00;0.00;;;15.80;99.90;;;;;;5034201;28;20207;-72
2022/03/24 10:47:44;;;;;;;0.10;0.10;;;16.00;99.90;;;;;;5041528;28;20250;-74
2022/03/24 10:50:22;;;;;;;0.00;0.00;;;16.20;99.90;;;;;;5039822;28;20280;-70
2022/03/24 10:52:49;;;;;;;0.00;0.00;;;16.20;99.90;;;;;;5044323;28;20255;-70
2022/03/24 10:55:27;;;;;;;0.00;0.00;;;16.40;99.90;;;;;;5033017;28;20230;-71
2022/03/24 10:58:04;;;;;;;0.00;0.00;;;16.50;99.90;;;;;;5072164;28;20774;-73
2022/03/24 11:00:32;;;;;;;0.10;0.10;;;16.60;99.90;;;;;;5071193;28;20194;-72
2022/03/24 11:03:02;;;;;;;0.10;0.10;;;16.80;99.00;;;;;;5032224;28;20627;-73
2022/03/24 11:05:29;;;;;;;0.10;0.10;;;;;;;;;;5039347;28;20196;-69
2022/03/24 11:07:56;;;;;;;0.10;0.10;;;16.80;98.30;;;;;;5041580;28;20243;-70
2022/03/24 11:10:24;;;;;;;0.00;0.00;;;17.00;98.20;;;;;;5037016;28;20195;-71
2022/03/24 11:12:55;;;;;;;0.00;0.00;;;17.00;98.20;;;;;;5035234;28;20231;-71
2022/03/24 11:15:23;;;;;;;0.00;0.00;;;17.10;98.40;;;;;;5041409;28;20207;-71
2022/03/24 11:17:50;;;;;;;0.10;0.10;;;17.20;98.50;;;;;;5041054;28;20227;-70
2022/03/24 11:20:24;;;;;;;0.00;0.00;;;17.20;96.80;;;;;;5033070;28;20199;-71
2022/03/24 11:22:52;;;;;;;0.10;0.10;;;17.40;97.00;;;;;;5041998;28;20228;-71
2022/03/24 11:25:23;;;;;;;0.07;0.07;;;17.50;95.40;;;;;;5037439;28;20199;-71
2022/03/24 11:27:53;;;;;;;0.00;0.00;;;17.60;96.20;;;;;;5033219;28;20261;-72
2022/03/24 11:30:22;;;;;;;0.07;0.07;;;17.60;95.90;;;;;;5033624;28;20224;-72
2022/03/24 11:32:52;;;;;;;0.10;0.10;;;17.60;94.80;;;;;;5040107;28;20223;-71
2022/03/24 11:35:21;;;;;;;0.10;0.10;;;17.60;94.60;;;;;;5029658;28;20208;-73
2022/03/24 11:37:49;;;;;;;0.00;0.00;;;17.60;94.60;;;;;;5035850;28;20251;-72
2022/03/24 11:40:19;;;;;;;0.00;0.00;;;17.60;94.30;;;;;;5033923;28;20200;-73
2022/03/24 11:42:50;;;;;;;0.10;0.10;;;17.60;95.60;;;;;;5036849;28;20298;-71
2022/03/24 11:45:26;;;;;;;0.10;0.10;;;17.60;93.10;;;;;;5034376;28;20329;-72
2022/03/24 11:48:03;;;;;;;0.03;0.03;;;17.50;92.80;;;;;;5038981;28;20191;-72
2022/03/24 11:50:45;;;;;;;0.10;0.10;;;17.40;92.90;;;;;;5039871;28;20215;-72
2022/03/24 11:53:18;;;;;;;0.00;0.00;;;17.40;93.70;;;;;;5038372;28;20201;-70
2022/03/24 11:56:16;;;;;;;0.10;0.10;;;17.40;93.30;;;;;;5033869;28;20214;-72
2022/03/24 11:59:23;;;;;;;0.03;0.03;;;17.50;92.40;;;;;;5029123;28;20745;-72
2022/03/24 12:02:16;;;;;;;0.00;0.00;;;17.70;93.20;;;;;;5039126;28;20318;-72
2022/03/24 12:04:49;;;;;;;0.10;0.10;;;17.40;92.20;;;;;;5031287;28;20568;-70
2022/03/24 12:07:19;;;;;;;0.10;0.10;;;17.50;92.60;;;;;;5033835;28;20198;-71
2022/03/24 12:09:58;;;;;;;0.00;0.00;;;17.40;91.90;;;;;;5021971;28;20200;-71
2022/03/24 12:12:25;;;;;;;0.00;0.00;;;17.40;92.10;;;;;;5028194;28;20219;-71
2022/03/24 12:14:56;;;;;;;0.00;0.00;;;17.30;93.10;;;;;;5023424;28;20209;-72
2022/03/24 12:17:28;;;;;;;0.10;0.10;;;17.20;92.10;;;;;;5021079;28;20228;-71
2022/03/24 12:19:59;;;;;;;0.00;0.00;;;17.10;91.90;;;;;;5027156;28;20208;-71
2022/03/24 12:22:43;;;;;;;0.00;0.00;;;17.00;92.00;;;;;;5028263;28;20232;-71
2022/03/24 12:25:25;;;;;;;0.00;0.00;;;17.10;93.20;;;;;;5024956;28;20257;-72
2022/03/24 12:28:06;;;;;;;0.00;0.00;;;16.90;92.30;;;;;;5029822;28;20210;-71
2022/03/24 12:31:01;;;;;;;0.00;0.00;;;16.80;92.80;;;;;;5023778;28;20200;-73
2022/03/24 12:33:34;;;;;;;0.10;0.10;;;16.90;92.70;;;;;;5013060;28;20206;-73
2022/03/24 12:36:04;;;;;;;0.10;0.10;;;16.90;92.70;;;;;;5014105;28;20207;-72
2022/03/24 12:38:44;;;;;;;0.00;0.00;;;17.00;92.90;;;;;;5016376;28;20645;-71
2022/03/24 12:41:27;;;;;;;0.07;0.07;;;17.10;92.90;;;;;;5016800;28;20227;-72
2022/03/24 12:44:07;;;;;;;0.00;0.00;;;17.10;92.40;;;;;;5012608;28;20208;-71
2022/03/24 12:46:37;;;;;;;0.10;0.10;;;17.20;92.50;;;;;;5021326;28;20243;-71
2022/03/24 12:49:35;;;;;;;0.10;0.10;;;17.20;92.10;;;;;;5019427;28;20287;-72
2022/03/24 12:52:10;;;;;;;0.00;0.00;;;17.30;91.90;;;;;;5033133;28;20224;-71
2022/03/24 12:54:43;;;;;;;0.00;0.00;;;17.30;91.60;;;;;;5033339;28;20199;-73
2022/03/24 12:57:33;;;;;;;0.10;0.10;;;17.40;91.60;;;;;;5021452;28;20709;-72
2022/03/24 13:00:00;;;;;;;0.10;0.10;;;17.40;91.30;;;;;;5023767;28;20230;-71
2022/03/24 13:02:28;;;;;;;0.00;0.00;;;17.50;91.30;;;;;;5020090;28;20266;-71
2022/03/24 13:04:56;;;;;;;0.10;0.10;;;17.30;91.20;;;;;;5022211;28;20265;-71
2022/03/24 13:07:26;;;;;;;0.00;0.00;;;17.30;90.90;;;;;;5023791;28;20210;-70
2022/03/24 13:10:08;;;;;;;0.00;0.00;;;17.30;90.40;;;;;;5024064;28;20196;-71
2022/03/24 13:12:37;;;;;;;0.00;0.00;;;17.30;91.90;;;;;;5041548;28;20223;-70
2022/03/24 13:15:06;;;;;;;0.10;0.10;;;17.20;90.80;;;;;;5019762;28;20215;-71
2022/03/24 13:17:33;;;;;;;0.00;0.00;;;16.80;98.50;;;;;;5017640;28;20220;-70
2022/03/24 13:20:04;;;;;;;0.00;0.00;;;16.80;90.50;;;;;;5022307;28;20211;-71
2022/03/24 13:22:34;;;;;;;0.00;0.00;;;16.60;91.30;;;;;;5021287;28;20246;-70
2022/03/24 13:25:05;;;;;;;0.00;0.00;;;16.40;90.80;;;;;;5019477;28;20203;-71
2022/03/24 13:27:34;;;;;;;0.10;0.10;;;16.40;91.20;;;;;;5017049;28;20204;-70
2022/03/24 13:30:06;;;;;;;0.00;0.00;;;16.20;91.10;;;;;;5017870;28;20330;-70
2022/03/24 13:32:33;;;;;;;0.10;0.10;;;16.20;90.90;;;;;;5015704;28;20247;-71
2022/03/24 13:35:02;;;;;;;0.00;0.00;;;16.10;90.90;;;;;;5025462;28;20318;-71
2022/03/24 13:37:36;;;;;;;0.00;0.00;;;16.00;90.70;;;;;;5016135;28;20213;-70
2022/03/24 13:40:05;;;;;;;0.00;0.00;;;16.00;90.90;;;;;;5025874;28;20640;-70
2022/03/24 13:42:32;;;;;;;0.00;0.00;;;15.90;90.80;;;;;;5014263;28;20225;-71
2022/03/24 13:44:59;;;;;;;0.00;0.00;;;16.00;90.90;;;;;;5021762;28;20232;-71
2022/03/24 13:47:28;;;;;;;0.10;0.10;;;16.00;91.20;;;;;;5014203;28;20200;-70
2022/03/24 13:49:57;;;;;;;0.00;0.00;;;16.00;92.00;;;;;;5023914;28;20211;-70
2022/03/24 13:52:40;;;;;;;0.00;0.00;;;16.00;91.10;;;;;;5016030;28;20304;-70
2022/03/24 13:55:13;;;;;;;0.00;0.00;;;16.00;91.30;;;;;;5023095;28;20212;-71
2022/03/24 13:57:48;;;;;;;0.10;0.10;;;16.00;91.00;;;;;;5017823;28;20223;-71
2022/03/24 14:00:38;;;;;;;0.00;0.00;;;16.10;91.50;;;;;;5018242;28;20203;-70
2022/03/24 14:03:08;;;;;;;0.00;0.00;;;16.10;91.00;;;;;;5024304;28;20207;-69
2022/03/24 14:05:57;;;;;;;0.00;0.00;;;16.10;91.80;;;;;;5023134;28;20204;-71
2022/03/24 14:08:34;;;;;;;0.00;0.00;;;16.10;91.40;;;;;;5017184;28;20272;-72
2022/03/24 14:11:07;;;;;;;0.00;0.00;;;16.10;91.90;;;;;;5013958;28;20228;-69
2022/03/24 14:13:43;;;;;;;0.10;0.10;;;15.90;91.50;;;;;;5022001;28;20259;-71
2022/03/24 14:16:22;;;;;;;0.00;0.00;;;16.00;91.90;;;;;;5011135;28;20328;-71
2022/03/24 14:19:13;;;;;;;0.00;0.00;;;16.10;91.80;;;;;;5020319;28;20248;-71